Time;durP1;ratioP1;P1;durP2;ratioP2;P2;SDS_P1;SDS_P2;PMS_P1;PMS_P2;Temp;Humidity;BMP_temperature;BMP_pressure;BME280_temperature;BME280_humidity;BME280_pressure;Samples;Min_cycle;Max_cycle;Signal;HPM_P1;HPM_P2
2023/07/28 00:01:29;;;;;;;71.15;67.78;;;;;;;21.85;55.71;100402.81;4988840;28;20037;-76
2023/07/28 00:03:56;;;;;;;72.45;68.95;;;;;;;21.83;55.79;100401.19;4983475;28;20062;-75
2023/07/28 00:06:21;;;;;;;74.32;70.90;;;;;;;21.83;55.25;100403.94;4987441;28;20146;-76
2023/07/28 00:08:46;;;;;;;74.57;70.97;;;;;;;21.82;55.30;100407.00;4994583;28;20462;-77
2023/07/28 00:11:14;;;;;;;73.90;70.45;;;;;;;21.82;55.69;100401.50;4986704;28;20085;-77
2023/07/28 00:13:41;;;;;;;70.97;67.55;;;;;;;21.82;55.27;100398.75;4986692;28;20069;-78
2023/07/28 00:16:07;;;;;;;71.10;67.70;;;;;;;21.81;55.67;100399.91;4995688;28;20042;-77
2023/07/28 00:18:32;;;;;;;72.68;69.07;;;;;;;21.82;55.49;100393.25;4983424;28;20030;-76
2023/07/28 00:20:58;;;;;;;72.22;68.72;;;;;;;21.80;55.69;100399.09;4985588;28;20086;-75
2023/07/28 00:23:24;;;;;;;72.47;68.85;;;;;;;21.79;55.47;100405.72;4986164;28;20398;-76
2023/07/28 00:25:50;;;;;;;75.55;71.95;;;;;;;21.79;55.48;100396.69;4990500;28;20058;-75
2023/07/28 00:28:15;;;;;;;72.22;68.43;;;;;;;21.79;55.55;100399.44;4989604;28;20068;-75
2023/07/28 00:30:41;;;;;;;71.78;68.28;;;;;;;21.78;55.60;100406.88;4991449;28;20478;-76
2023/07/28 00:33:06;;;;;;;73.68;70.00;;;;;;;21.78;55.44;100406.06;4989711;28;20113;-75
2023/07/28 00:35:32;;;;;;;72.00;68.30;;;;;;;21.77;55.51;100399.78;4984589;28;20035;-76
2023/07/28 00:37:58;;;;;;;73.40;69.82;;;;;;;21.78;56.04;100397.81;4985377;28;20039;-74
2023/07/28 00:40:24;;;;;;;72.72;69.25;;;;;;;21.76;55.55;100389.09;4981860;28;20093;-76
2023/07/28 00:42:50;;;;;;;71.75;68.15;;;;;;;21.76;55.57;100391.84;4988159;28;20033;-76
2023/07/28 00:45:15;;;;;;;72.63;68.93;;;;;;;21.76;55.77;100394.59;4990882;28;20482;-76
2023/07/28 00:47:41;;;;;;;69.40;66.05;;;;;;;21.76;55.38;100395.38;4988422;28;20038;-76
2023/07/28 00:50:09;;;;;;;71.35;67.85;;;;;;;21.75;55.66;100388.28;4987080;28;20042;-75
2023/07/28 00:52:35;;;;;;;;;;;;;;;21.75;55.44;100393.78;4981499;28;20105;-73
2023/07/28 00:55:01;;;;;;;71.38;67.88;;;;;;;21.73;55.46;100392.50;4983418;28;19937;-75
2023/07/28 00:57:26;;;;;;;71.78;68.30;;;;;;;21.72;55.73;100393.63;4990322;28;20043;-75
2023/07/28 00:59:52;;;;;;;72.95;69.35;;;;;;;21.73;55.65;100392.50;4992043;28;20045;-75
2023/07/28 01:02:19;;;;;;;73.68;69.97;;;;;;;21.72;55.91;100386.19;4981898;28;20050;-75
2023/07/28 01:04:44;;;;;;;71.90;68.32;;;;;;;21.72;55.74;100394.44;4987629;28;20106;-74
2023/07/28 01:07:17;;;;;;;71.93;68.40;;;;;;;21.72;55.74;100396.34;4987911;28;20038;-75
2023/07/28 01:09:53;;;;;;;72.05;68.45;;;;;;;21.71;55.50;100392.00;4980242;28;20046;-75
2023/07/28 01:12:18;;;;;;;71.30;67.80;;;;;;;21.71;55.76;100397.50;4993744;28;20096;-76
2023/07/28 01:14:44;;;;;;;73.25;69.65;;;;;;;21.70;55.72;100402.19;4989761;28;20446;-75
2023/07/28 01:17:10;;;;;;;72.90;69.15;;;;;;;21.71;55.55;100400.25;4988723;28;20034;-75
2023/07/28 01:19:36;;;;;;;71.63;68.10;;;;;;;21.70;55.69;100401.41;4991067;28;20490;-75
2023/07/28 01:22:31;;;;;;;74.45;70.72;;;;;;;21.70;55.97;100406.91;4990267;28;20293;-76
2023/07/28 01:25:03;;;;;;;71.57;67.97;;;;;;;21.69;55.53;100395.06;4984895;28;20061;-75
2023/07/28 01:27:29;;;;;;;72.15;68.65;;;;;;;21.68;55.77;100392.66;4990971;28;20121;-75
2023/07/28 01:29:54;;;;;;;73.07;69.38;;;;;;;21.68;55.69;100400.91;4984100;28;20367;-75
2023/07/28 01:32:20;;;;;;;73.20;69.68;;;;;;;21.68;55.35;100398.16;4992166;28;20050;-75
2023/07/28 01:34:45;;;;;;;72.32;68.63;;;;;;;21.67;55.90;100396.53;4982971;28;20058;-75
2023/07/28 01:37:11;;;;;;;70.95;67.38;;;;;;;21.67;55.57;100393.78;4985464;28;20089;-73
2023/07/28 01:39:36;;;;;;;71.90;68.40;;;;;;;21.67;55.40;100391.03;4995189;28;20049;-76
2023/07/28 01:42:01;;;;;;;74.90;71.22;;;;;;;21.66;55.70;100390.22;4979224;28;20459;-75
2023/07/28 01:44:27;;;;;;;72.47;68.65;;;;;;;21.65;55.43;100402.38;4983713;28;20395;-74
2023/07/28 01:46:52;;;;;;;71.25;67.80;;;;;;;21.66;55.99;100401.22;4979448;28;20483;-75
2023/07/28 01:49:17;;;;;;;72.80;69.20;;;;;;;21.66;55.84;100403.97;4988184;28;20153;-76
2023/07/28 01:51:43;;;;;;;71.40;67.50;;;;;;;21.66;55.60;100408.66;5000258;28;20034;-74
2023/07/28 01:54:23;;;;;;;73.38;69.65;;;;;;;21.66;55.82;100411.41;4984820;28;20469;-75
2023/07/28 01:56:49;;;;;;;70.32;66.72;;;;;;;21.65;55.91;100407.06;4982315;28;20069;-76
2023/07/28 01:59:14;;;;;;;69.75;66.25;;;;;;;21.64;55.72;100411.72;4983595;28;20121;-75
2023/07/28 02:01:40;;;;;;;69.38;65.78;;;;;;;21.64;56.06;100405.44;4988065;28;20037;-74
2023/07/28 02:04:05;;;;;;;72.40;68.80;;;;;;;21.63;55.93;100407.38;4987561;28;20495;-75
2023/07/28 02:06:31;;;;;;;72.40;68.93;;;;;;;21.64;56.03;100406.25;4988316;28;20121;-74
2023/07/28 02:08:57;;;;;;;72.85;69.25;;;;;;;21.62;55.99;100403.03;4984360;28;20046;-75
2023/07/28 02:11:22;;;;;;;72.38;68.60;;;;;;;21.62;55.65;100397.53;5001402;28;20039;-75
2023/07/28 02:13:47;;;;;;;72.32;68.43;;;;;;;21.61;56.01;100399.44;4984299;28;20089;-75
2023/07/28 02:16:13;;;;;;;72.72;68.72;;;;;;;21.62;55.57;100405.78;4974924;28;20054;-74
2023/07/28 02:18:38;;;;;;;74.15;69.95;;;;;;;21.61;56.11;100404.94;4985591;28;20050;-75
2023/07/28 02:21:04;;;;;;;72.40;68.70;;;;;;;21.61;56.00;100404.16;4988916;28;20490;-76
2023/07/28 02:23:30;;;;;;;71.28;67.65;;;;;;;21.60;55.83;100402.53;4988797;28;20042;-75
2023/07/28 02:25:55;;;;;;;73.60;69.78;;;;;;;21.59;55.64;100398.97;4981988;28;20042;-76
2023/07/28 02:28:20;;;;;;;72.30;68.30;;;;;;;21.60;55.69;100410.78;4978990;28;20070;-75
2023/07/28 02:30:46;;;;;;;71.78;68.10;;;;;;;21.59;55.69;100404.47;4987006;28;20505;-75
2023/07/28 02:33:11;;;;;;;76.70;72.53;;;;;;;21.59;55.44;100404.47;4989816;28;20104;-74
2023/07/28 02:35:36;;;;;;;74.93;70.80;;;;;;;21.59;56.10;100398.16;5000835;28;20046;-75
2023/07/28 02:38:02;;;;;;;75.03;70.68;;;;;;;21.59;56.00;100404.47;4982094;28;20026;-74
2023/07/28 02:40:27;;;;;;;74.45;70.65;;;;;;;21.59;55.63;100398.16;4978238;28;20039;-76
2023/07/28 02:42:53;;;;;;;75.78;71.68;;;;;;;21.58;56.04;100402.06;4991111;28;20057;-75
2023/07/28 02:45:19;;;;;;;72.18;68.25;;;;;;;21.58;55.79;100402.06;4987143;28;20042;-76
2023/07/28 02:47:44;;;;;;;72.75;69.00;;;;;;;21.57;56.22;100404.00;4987927;28;20037;-75
2023/07/28 02:50:10;;;;;;;73.93;70.00;;;;;;;21.57;55.97;100403.16;4997845;28;20038;-75
2023/07/28 02:52:35;;;;;;;73.85;69.65;;;;;;;21.56;55.95;100402.38;4984686;28;20177;-75
2023/07/28 02:55:01;;;;;;;73.07;69.28;;;;;;;21.56;56.06;100407.88;4983447;28;20042;-75
2023/07/28 02:57:26;;;;;;;73.72;69.55;;;;;;;21.56;56.03;100401.56;4984194;28;20120;-75
2023/07/28 02:59:52;;;;;;;73.25;69.10;;;;;;;21.56;56.18;100410.63;4990783;28;20374;-74
2023/07/28 03:02:17;;;;;;;73.57;69.68;;;;;;;21.55;56.15;100411.75;4980010;28;20208;-75
2023/07/28 03:04:43;;;;;;;73.03;69.15;;;;;;;21.55;55.65;100417.25;4989283;28;20062;-75
2023/07/28 03:07:08;;;;;;;75.20;71.20;;;;;;;21.55;55.96;100416.44;4980880;28;20039;-75
2023/07/28 03:09:33;;;;;;;73.20;68.85;;;;;;;21.55;55.67;100408.22;4988069;28;20473;-75
2023/07/28 03:11:59;;;;;;;72.63;68.20;;;;;;;21.54;55.70;100421.13;4981608;28;20037;-77
2023/07/28 03:14:24;;;;;;;72.38;68.13;;;;;;;21.54;56.11;100414.81;4994576;28;20041;-75
2023/07/28 03:16:50;;;;;;;71.20;67.28;;;;;;;21.54;55.98;100417.56;4986510;28;20499;-75
2023/07/28 03:19:15;;;;;;;72.70;68.72;;;;;;;21.54;56.04;100425.81;5001204;28;20080;-75
2023/07/28 03:21:40;;;;;;;72.78;68.75;;;;;;;21.53;56.00;100424.22;4981678;28;20054;-74
2023/07/28 03:24:06;;;;;;;75.25;71.05;;;;;;;21.53;55.69;100426.97;5000730;28;20035;-75
2023/07/28 03:26:31;;;;;;;70.60;66.00;;;;;;;21.52;55.79;100423.41;4985400;28;20619;-75
2023/07/28 03:28:57;;;;;;;72.07;68.07;;;;;;;21.52;56.02;100426.16;4983737;28;20081;-75
2023/07/28 03:31:22;;;;;;;73.85;69.68;;;;;;;21.52;55.60;100428.06;4980968;28;20038;-75
2023/07/28 03:33:47;;;;;;;72.97;68.72;;;;;;;21.51;56.00;100424.50;4985599;28;20037;-74
2023/07/28 03:36:13;;;;;;;72.97;68.82;;;;;;;21.51;55.70;100430.00;4981974;28;20046;-75
2023/07/28 03:38:38;;;;;;;71.55;67.30;;;;;;;21.51;55.81;100427.25;4985108;28;20567;-77
2023/07/28 03:41:04;;;;;;;75.78;71.13;;;;;;;21.50;55.66;100428.41;4984679;28;20049;-75
2023/07/28 03:43:29;;;;;;;74.68;70.38;;;;;;;21.51;55.79;100437.47;4984938;28;20038;-75
2023/07/28 03:45:54;;;;;;;76.45;71.78;;;;;;;21.50;56.15;100450.41;4984044;28;20089;-75
2023/07/28 03:48:20;;;;;;;75.22;70.68;;;;;;;21.49;56.18;100446.00;4986226;28;20395;-76
2023/07/28 03:50:45;;;;;;;71.95;67.75;;;;;;;21.49;56.17;100446.00;4992791;28;20193;-75
2023/07/28 03:53:10;;;;;;;76.05;71.82;;;;;;;21.48;55.92;100441.66;4985087;28;20053;-75
2023/07/28 03:55:36;;;;;;;73.57;68.90;;;;;;;21.49;55.89;100447.97;4988012;28;20030;-75
2023/07/28 03:58:02;;;;;;;69.95;66.10;;;;;;;21.49;56.33;100446.00;4986837;28;20054;-75
2023/07/28 04:00:28;;;;;;;70.50;66.32;;;;;;;21.48;56.00;100452.66;4987547;28;20069;-75
2023/07/28 04:02:53;;;;;;;73.32;69.10;;;;;;;21.48;55.81;100447.16;4994929;28;20058;-75
2023/07/28 04:05:18;;;;;;;70.80;66.82;;;;;;;21.48;55.88;100451.84;4984051;28;20049;-76
2023/07/28 04:07:44;;;;;;;74.28;70.00;;;;;;;21.47;55.97;100448.31;4984995;28;20101;-74
2023/07/28 04:10:09;;;;;;;72.10;67.93;;;;;;;21.47;56.29;100445.56;4989964;28;20057;-77
2023/07/28 04:12:35;;;;;;;69.90;65.93;;;;;;;21.47;55.89;100448.31;4995231;28;20113;-78
2023/07/28 04:15:00;;;;;;;70.40;66.32;;;;;;;21.46;56.11;100446.66;4986887;28;20431;-74
2023/07/28 04:17:25;;;;;;;73.50;69.00;;;;;;;21.46;55.87;100449.41;4987220;28;20043;-74
2023/07/28 04:19:51;;;;;;;73.32;69.13;;;;;;;21.46;55.73;100435.69;4990634;28;20034;-75
2023/07/28 04:22:21;;;;;;;74.13;69.72;;;;;;;21.46;55.86;100432.13;4988650;28;20044;-75
2023/07/28 04:24:47;;;;;;;72.28;68.07;;;;;;;21.45;55.74;100431.31;4985248;28;20121;-76
2023/07/28 04:27:13;;;;;;;73.47;69.00;;;;;;;21.45;56.12;100436.00;4992832;28;20031;-75
2023/07/28 04:29:38;;;;;;;71.97;67.68;;;;;;;21.44;56.33;100437.94;4988237;28;20557;-76
2023/07/28 04:32:04;;;;;;;73.03;68.63;;;;;;;21.45;56.27;100442.31;4992791;28;20117;-75
2023/07/28 04:34:33;;;;;;;72.10;67.90;;;;;;;21.44;56.15;100445.38;5005845;28;20043;-74
2023/07/28 04:36:58;;;;;;;69.55;65.55;;;;;;;21.44;56.34;100440.69;4984814;28;20034;-75
2023/07/28 04:39:24;;;;;;;74.65;70.30;;;;;;;21.44;56.41;100440.69;4984685;28;20077;-74
2023/07/28 04:41:49;;;;;;;75.88;71.25;;;;;;;21.44;56.41;100445.38;4984813;28;20082;-75
2023/07/28 04:44:14;;;;;;;72.90;68.53;;;;;;;21.44;56.50;100448.13;4984433;28;20064;-75
2023/07/28 04:46:40;;;;;;;71.90;67.72;;;;;;;21.44;56.53;100448.13;4988642;28;20035;-74
2023/07/28 04:49:05;;;;;;;70.30;66.10;;;;;;;21.43;56.47;100450.06;4986038;28;20053;-75
2023/07/28 04:51:31;;;;;;;71.88;67.28;;;;;;;21.43;56.11;100447.31;4984017;28;20409;-74
2023/07/28 04:53:56;;;;;;;73.03;69.03;;;;;;;21.43;56.02;100447.31;4974109;28;20038;-74
2023/07/28 04:56:21;;;;;;;74.85;70.75;;;;;;;21.43;56.59;100455.56;4991551;28;20038;-74
2023/07/28 04:58:47;;;;;;;71.20;66.78;;;;;;;21.43;56.12;100455.56;4987023;28;20058;-74
2023/07/28 05:01:13;;;;;;;70.55;66.78;;;;;;;21.42;56.42;100462.19;4977809;28;20059;-74
2023/07/28 05:03:38;;;;;;;70.43;66.43;;;;;;;21.43;56.62;100463.00;4990522;28;20054;-74
2023/07/28 05:06:07;;;;;;;70.43;66.57;;;;;;;21.42;56.52;100456.72;4990134;28;20557;-74
2023/07/28 05:08:32;;;;;;;71.85;67.95;;;;;;;21.42;56.05;100464.13;4990097;28;20513;-74
2023/07/28 05:10:58;;;;;;;72.55;68.53;;;;;;;21.41;56.42;100471.56;5002203;28;20030;-74
2023/07/28 05:13:23;;;;;;;73.53;69.13;;;;;;;21.41;56.35;100471.56;4989090;28;20085;-74
2023/07/28 05:15:48;;;;;;;72.15;68.00;;;;;;;21.41;56.53;100468.81;4990108;28;20045;-75
2023/07/28 05:18:14;;;;;;;70.57;66.65;;;;;;;21.41;56.04;100479.81;4985104;28;20051;-75
2023/07/28 05:20:39;;;;;;;72.40;68.43;;;;;;;21.41;56.36;100474.31;4987399;28;20043;-74
2023/07/28 05:23:05;;;;;;;70.65;66.57;;;;;;;21.42;56.38;100480.59;4983418;28;20489;-74
2023/07/28 05:25:30;;;;;;;72.13;68.13;;;;;;;21.41;56.23;100482.53;4991041;28;20038;-73
2023/07/28 05:27:55;;;;;;;72.05;67.95;;;;;;;21.41;56.08;100476.25;4990337;28;20065;-75
2023/07/28 05:30:21;;;;;;;73.72;69.22;;;;;;;21.41;56.08;100482.53;4990423;28;20034;-74
2023/07/28 05:32:47;;;;;;;72.63;67.93;;;;;;;21.40;56.65;100486.44;4987144;28;20038;-74
2023/07/28 05:35:13;;;;;;;70.90;66.90;;;;;;;21.40;56.39;100483.69;4985360;28;20092;-74
2023/07/28 05:37:38;;;;;;;72.97;68.47;;;;;;;21.40;56.71;100483.69;4986025;28;20117;-75
2023/07/28 05:40:05;;;;;;;74.57;70.45;;;;;;;21.40;56.48;100483.69;4991142;28;20064;-74
2023/07/28 05:42:30;;;;;;;73.35;68.85;;;;;;;21.40;56.67;100486.44;4969656;28;20479;-74
2023/07/28 05:44:55;;;;;;;76.28;71.88;;;;;;;21.40;56.83;100497.44;5000456;28;20034;-74
2023/07/28 05:47:21;;;;;;;72.68;68.47;;;;;;;21.41;56.65;100495.47;4986151;28;20042;-77
2023/07/28 05:49:46;;;;;;;72.63;68.53;;;;;;;21.39;56.76;100495.78;4966420;28;20474;-73
2023/07/28 05:52:12;;;;;;;73.15;68.82;;;;;;;21.38;56.42;100495.00;4990884;28;20146;-73
2023/07/28 05:54:37;;;;;;;73.63;69.57;;;;;;;21.39;56.80;100501.28;4989075;28;20125;-74
2023/07/28 05:57:03;;;;;;;73.45;69.15;;;;;;;21.39;56.95;100504.03;4984814;28;20034;-74
2023/07/28 05:59:29;;;;;;;76.60;72.18;;;;;;;21.39;56.97;100502.13;4984394;28;20084;-76
2023/07/28 06:01:55;;;;;;;74.65;70.22;;;;;;;21.39;56.76;100507.63;4986856;28;20041;-76
2023/07/28 06:04:21;;;;;;;76.45;71.90;;;;;;;21.41;56.62;100506.47;4999222;28;20113;-75
2023/07/28 06:06:47;;;;;;;81.63;76.32;;;;;;;21.39;57.19;100502.13;4986354;28;20046;-75
2023/07/28 06:09:12;;;;;;;73.85;69.22;;;;;;;21.39;56.83;100504.88;4989077;28;20043;-75
2023/07/28 06:11:38;;;;;;;75.07;70.57;;;;;;;21.40;57.25;100508.41;4987558;28;20051;-75
2023/07/28 06:14:03;;;;;;;78.57;73.72;;;;;;;21.41;57.24;100506.47;4987641;28;20043;-75
2023/07/28 06:16:28;;;;;;;76.82;71.95;;;;;;;21.40;56.89;100508.41;4981099;28;20046;-74
2023/07/28 06:18:54;;;;;;;76.22;71.65;;;;;;;21.39;56.76;100506.78;4981605;28;20026;-74
2023/07/28 06:21:19;;;;;;;79.28;74.28;;;;;;;21.39;56.74;100504.88;4988318;28;20038;-75
2023/07/28 06:23:45;;;;;;;78.95;73.72;;;;;;;21.39;57.03;100504.88;4996546;28;20467;-74
2023/07/28 06:26:11;;;;;;;78.63;73.13;;;;;;;21.40;56.96;100513.91;4987455;28;20035;-75
2023/07/28 06:28:37;;;;;;;77.95;72.68;;;;;;;21.40;56.87;100513.91;4977623;28;20390;-75
2023/07/28 06:31:02;;;;;;;77.18;72.00;;;;;;;21.39;56.73;100515.84;5001729;28;20053;-75
2023/07/28 06:33:28;;;;;;;80.43;74.93;;;;;;;21.39;56.55;100515.84;4987354;28;20042;-76
2023/07/28 06:35:54;;;;;;;79.38;73.97;;;;;;;21.39;56.47;100521.34;4990266;28;20034;-75
2023/07/28 06:38:19;;;;;;;79.28;73.68;;;;;;;21.40;56.82;100522.16;4984442;28;20041;-74
2023/07/28 06:40:44;;;;;;;77.28;72.00;;;;;;;21.40;56.49;100524.91;4989411;28;20662;-74
2023/07/28 06:43:10;;;;;;;76.95;71.85;;;;;;;21.40;56.67;100530.41;4989242;28;20034;-74
2023/07/28 06:45:36;;;;;;;78.13;72.82;;;;;;;21.41;56.67;100528.44;4986732;28;20092;-75
2023/07/28 06:48:01;;;;;;;77.85;72.65;;;;;;;21.41;56.89;100529.25;4986115;28;20030;-75
2023/07/28 06:50:27;;;;;;;80.05;74.40;;;;;;;21.41;56.86;100534.75;4985337;28;20058;-75
2023/07/28 06:52:52;;;;;;;76.18;71.20;;;;;;;21.41;56.68;100531.19;5016126;28;20109;-75
2023/07/28 06:55:18;;;;;;;80.45;75.10;;;;;;;21.42;57.04;100530.06;4984848;28;20039;-75
2023/07/28 06:57:44;;;;;;;77.53;72.53;;;;;;;21.41;56.99;100523.75;4980140;28;20441;-75
2023/07/28 07:00:10;;;;;;;79.70;74.50;;;;;;;21.43;56.58;100535.25;4982343;28;20470;-75
2023/07/28 07:02:36;;;;;;;79.15;73.53;;;;;;;21.42;56.78;100530.91;4989173;28;20030;-75
2023/07/28 07:05:01;;;;;;;78.03;73.15;;;;;;;21.42;56.88;100535.56;4994173;28;20414;-75
2023/07/28 07:07:27;;;;;;;78.30;73.35;;;;;;;21.43;56.60;100542.69;4978644;28;20383;-76
2023/07/28 07:09:52;;;;;;;79.28;73.57;;;;;;;21.43;56.57;100542.69;4979629;28;20126;-74
2023/07/28 07:12:19;;;;;;;73.35;69.05;;;;;;;21.43;56.65;100542.69;4980702;28;20446;-74
2023/07/28 07:14:45;;;;;;;78.00;73.10;;;;;;;21.43;56.58;100540.75;4989530;28;20050;-75
2023/07/28 07:17:10;;;;;;;79.28;74.20;;;;;;;21.43;56.22;100549.00;4982741;28;20525;-75
2023/07/28 07:19:35;;;;;;;78.78;73.38;;;;;;;21.44;56.39;100547.03;4984496;28;20541;-75
2023/07/28 07:22:01;;;;;;;81.50;75.60;;;;;;;21.44;55.96;100556.09;4984785;28;20039;-75
2023/07/28 07:24:27;;;;;;;76.05;70.75;;;;;;;21.44;56.07;100549.78;5002276;28;20030;-75
2023/07/28 07:26:52;;;;;;;75.72;70.85;;;;;;;21.45;55.94;100556.91;4984696;28;20081;-75
2023/07/28 07:29:18;;;;;;;76.57;71.78;;;;;;;21.46;56.10;100555.78;4979682;28;20150;-75
2023/07/28 07:31:43;;;;;;;75.15;70.15;;;;;;;21.47;56.00;100554.63;4963278;28;20126;-73
2023/07/28 07:34:09;;;;;;;74.75;70.32;;;;;;;21.47;56.48;100566.47;4980070;28;20101;-74
2023/07/28 07:36:34;;;;;;;79.18;74.28;;;;;;;21.47;56.09;100571.97;4988873;28;20420;-75
2023/07/28 07:39:00;;;;;;;74.53;69.97;;;;;;;21.48;56.24;100561.78;4987792;28;20034;-75
2023/07/28 07:41:25;;;;;;;76.43;71.50;;;;;;;21.48;56.20;100570.81;4982308;28;20470;-76
2023/07/28 07:43:54;;;;;;;72.85;68.47;;;;;;;21.49;55.95;100575.16;4982269;28;20537;-75
2023/07/28 07:46:20;;;;;;;71.97;68.05;;;;;;;21.51;55.79;100580.34;4984439;28;20034;-75
2023/07/28 07:48:46;;;;;;;73.95;69.55;;;;;;;21.52;55.77;100584.72;4985832;28;20441;-75
2023/07/28 07:51:11;;;;;;;75.35;70.90;;;;;;;21.51;55.68;100581.16;4985262;28;20047;-74
2023/07/28 07:53:37;;;;;;;75.30;70.50;;;;;;;21.51;55.86;100572.91;4990640;28;20034;-74
2023/07/28 07:56:03;;;;;;;74.63;70.20;;;;;;;21.53;55.79;100575.34;4987481;28;20423;-75
2023/07/28 07:58:29;;;;;;;74.88;70.57;;;;;;;21.54;55.73;100571.47;4985107;28;20070;-75
2023/07/28 08:00:55;;;;;;;78.15;73.63;;;;;;;21.54;55.90;100572.28;4987587;28;20049;-76
2023/07/28 08:03:20;;;;;;;76.85;72.07;;;;;;;21.54;55.91;100580.50;4985274;28;20077;-75
2023/07/28 08:05:46;;;;;;;79.20;74.53;;;;;;;21.55;55.82;100582.16;4988080;28;20137;-74
2023/07/28 08:08:11;;;;;;;72.88;68.72;;;;;;;21.56;55.67;100582.97;4989877;28;20485;-74
2023/07/28 08:10:38;;;;;;;75.07;70.30;;;;;;;21.56;55.67;100577.47;4981153;28;20117;-75
2023/07/28 08:13:04;;;;;;;72.85;68.25;;;;;;;21.56;55.92;100575.50;4982513;28;20034;-74
2023/07/28 08:15:29;;;;;;;73.32;69.00;;;;;;;21.58;55.91;100575.19;4982511;28;20101;-75
2023/07/28 08:17:55;;;;;;;73.47;69.38;;;;;;;21.58;55.97;100584.25;4985470;28;20415;-75
2023/07/28 08:20:20;;;;;;;73.78;69.53;;;;;;;21.59;56.19;100585.84;4990803;28;20391;-67
2023/07/28 08:22:46;;;;;;;80.15;75.35;;;;;;;21.60;56.61;100592.19;4982131;28;20038;-71
2023/07/28 08:25:11;;;;;;;79.05;74.45;;;;;;;21.61;56.93;100599.28;4984908;28;20043;-72
2023/07/28 08:27:36;;;;;;;79.18;74.57;;;;;;;21.65;57.29;100592.03;4984446;28;20035;-74
2023/07/28 08:30:03;;;;;;;78.40;73.80;;;;;;;21.70;57.37;100604.81;4985728;28;20048;-74
2023/07/28 08:32:29;;;;;;;78.47;74.07;;;;;;;21.73;57.60;100595.94;4987431;28;20469;-74
2023/07/28 08:34:54;;;;;;;80.03;75.05;;;;;;;21.75;57.74;100604.66;4978785;28;20117;-75
2023/07/28 08:37:20;;;;;;;79.20;74.40;;;;;;;21.78;57.77;100595.78;4982698;28;20026;-74
2023/07/28 08:39:45;;;;;;;82.57;77.43;;;;;;;21.79;57.46;100594.63;4983104;28;20364;-74
2023/07/28 08:42:10;;;;;;;82.15;76.95;;;;;;;21.80;57.38;100601.75;4990973;28;20038;-68
2023/07/28 08:44:36;;;;;;;81.47;76.38;;;;;;;21.81;57.76;100603.38;4991379;28;20061;-75
2023/07/28 08:47:04;;;;;;;83.10;77.35;;;;;;;21.81;57.30;100598.66;4987440;28;20034;-75
2023/07/28 08:49:35;;;;;;;80.10;75.07;;;;;;;21.83;57.08;100607.41;4984651;28;20038;-74
2023/07/28 08:52:00;;;;;;;82.78;77.63;;;;;;;21.85;56.93;100609.03;4989595;28;20553;-74
2023/07/28 08:54:27;;;;;;;76.68;72.47;;;;;;;21.86;57.16;100605.97;4979373;28;20121;-75
2023/07/28 08:56:52;;;;;;;77.18;73.25;;;;;;;21.87;56.54;100607.56;4992177;28;20080;-70
2023/07/28 08:59:26;;;;;;;82.35;77.45;;;;;;;21.88;57.10;100598.19;4986176;28;20058;-74
2023/07/28 09:02:00;;;;;;;81.50;76.95;;;;;;;21.91;57.25;100607.75;4997857;28;20126;-74
2023/07/28 09:04:25;;;;;;;83.30;78.78;;;;;;;21.92;57.18;100610.16;4984218;28;20187;-74
2023/07/28 09:06:51;;;;;;;77.93;73.85;;;;;;;21.93;57.03;100609.03;4985152;28;20030;-74
2023/07/28 09:09:18;;;;;;;83.00;78.72;;;;;;;21.95;56.97;100612.28;4985999;28;20089;-73
2023/07/28 09:11:49;;;;;;;78.65;74.25;;;;;;;21.97;57.14;100611.94;4991080;28;20405;-74
2023/07/28 09:14:16;;;;;;;77.82;73.70;;;;;;;21.99;57.18;100610.50;4990169;28;20045;-74
2023/07/28 09:16:43;;;;;;;80.28;75.22;;;;;;;22.00;57.60;100612.13;4987226;28;20030;-74
2023/07/28 09:19:09;;;;;;;77.35;73.05;;;;;;;22.03;57.32;100611.47;4993388;28;20108;-74
2023/07/28 09:21:37;;;;;;;80.32;75.90;;;;;;;22.06;57.68;100611.97;4997628;28;20038;-80
2023/07/28 09:24:08;;;;;;;84.25;79.65;;;;;;;22.09;57.78;100611.31;5006556;28;20452;-75
2023/07/28 09:26:42;;;;;;;78.05;73.65;;;;;;;22.11;58.09;100615.34;4983232;28;20395;-75
2023/07/28 09:29:16;;;;;;;78.45;74.25;;;;;;;22.13;57.87;100615.03;4983302;28;20455;-75
2023/07/28 09:31:45;;;;;;;81.82;77.03;;;;;;;22.17;57.59;100610.50;4989908;28;20030;-75
2023/07/28 09:34:13;;;;;;;86.32;81.53;;;;;;;22.20;57.41;100610.72;4988244;28;20030;-75
2023/07/28 09:36:39;;;;;;;79.93;75.53;;;;;;;22.22;57.62;100611.16;4989657;28;20031;-75
2023/07/28 09:39:09;;;;;;;79.35;74.93;;;;;;;22.24;57.67;100614.41;4984261;28;20030;-74
2023/07/28 09:41:36;;;;;;;80.90;76.47;;;;;;;22.26;57.44;100614.09;4988838;28;20043;-74
2023/07/28 09:44:02;;;;;;;81.95;77.53;;;;;;;22.29;58.02;100615.38;4978149;28;20125;-74
2023/07/28 09:46:30;;;;;;;82.40;77.70;;;;;;;22.32;57.85;100611.97;4989011;28;20510;-82
2023/07/28 09:48:58;;;;;;;85.70;81.03;;;;;;;22.33;57.71;100619.91;4989793;28;20501;-70
2023/07/28 09:51:30;;;;;;;82.30;77.80;;;;;;;22.37;58.68;100625.56;4994666;28;20137;-72
2023/07/28 09:54:05;;;;;;;82.45;78.00;;;;;;;22.41;58.75;100624.59;4985476;28;20034;-74
2023/07/28 09:56:31;;;;;;;81.50;77.30;;;;;;;22.45;58.56;100624.75;4985826;28;20031;-74
2023/07/28 09:58:58;;;;;;;82.97;78.65;;;;;;;22.50;58.21;100624.56;4985779;28;20082;-74
2023/07/28 10:01:26;;;;;;;85.00;80.28;;;;;;;22.54;58.51;100630.25;4985904;28;20054;-75
2023/07/28 10:03:52;;;;;;;82.82;78.03;;;;;;;22.57;57.94;100629.59;4983539;28;20077;-74
2023/07/28 10:06:19;;;;;;;86.50;81.70;;;;;;;22.60;58.00;100624.28;4988091;28;20071;-74
2023/07/28 10:08:45;;;;;;;87.40;82.60;;;;;;;22.62;57.84;100632.19;4979996;28;20039;-75
2023/07/28 10:11:16;;;;;;;83.45;79.03;;;;;;;22.64;57.61;100630.72;4985130;28;20450;-74
2023/07/28 10:13:44;;;;;;;82.78;78.38;;;;;;;22.66;57.87;100630.41;4990026;28;20053;-74
2023/07/28 10:16:10;;;;;;;83.70;79.40;;;;;;;22.69;57.80;100632.50;4990181;28;20422;-74
2023/07/28 10:18:36;;;;;;;83.57;79.05;;;;;;;22.71;57.77;100632.97;4991489;28;20293;-74
2023/07/28 10:21:06;;;;;;;86.28;80.95;;;;;;;22.73;57.58;100633.47;4983213;28;20054;-74
2023/07/28 10:23:35;;;;;;;84.40;79.90;;;;;;;22.76;57.51;100632.00;4982167;28;20050;-75
2023/07/28 10:26:02;;;;;;;83.43;78.93;;;;;;;22.78;57.41;100627.78;4981673;28;20050;-75
2023/07/28 10:28:32;;;;;;;81.78;77.53;;;;;;;22.82;57.59;100630.69;4981251;28;20035;-74
2023/07/28 10:30:59;;;;;;;85.93;81.68;;;;;;;22.84;57.50;100633.91;4995447;28;20049;-75
2023/07/28 10:33:36;;;;;;;83.85;79.53;;;;;;;22.85;57.01;100630.81;4987106;28;20026;-75
2023/07/28 10:36:33;;;;;;;83.22;79.03;;;;;;;22.89;57.15;100633.75;4978999;28;20033;-75
2023/07/28 10:39:04;;;;;;;83.07;79.07;;;;;;;22.92;57.17;100635.84;5005494;28;20037;-75
2023/07/28 10:41:32;;;;;;;80.72;76.93;;;;;;;22.95;57.35;100631.63;4985669;28;20045;-77
2023/07/28 10:43:58;;;;;;;84.97;80.90;;;;;;;23.00;57.02;100631.47;4975187;28;20026;-74
2023/07/28 10:46:23;;;;;;;81.35;77.45;;;;;;;23.03;57.41;100628.88;4983203;28;20038;-73
2023/07/28 10:48:50;;;;;;;90.68;86.40;;;;;;;23.08;57.26;100625.09;4985917;28;20038;-74
2023/07/28 10:51:29;;;;;;;86.30;81.95;;;;;;;23.10;57.19;100629.16;4975621;28;20039;-74
2023/07/28 10:53:55;;;;;;;87.10;82.82;;;;;;;23.14;57.38;100626.56;4981322;28;20402;-73
2023/07/28 10:56:21;;;;;;;86.22;82.05;;;;;;;23.19;57.01;100628.34;4989335;28;20038;-75
2023/07/28 10:58:47;;;;;;;88.53;84.18;;;;;;;23.21;57.15;100623.28;4980291;28;20039;-73
2023/07/28 11:01:15;;;;;;;84.95;80.95;;;;;;;23.24;56.90;100626.19;4982878;28;20450;-74
2023/07/28 11:03:41;;;;;;;88.28;83.80;;;;;;;23.28;56.99;100620.81;4984192;28;20057;-73
2023/07/28 11:06:06;;;;;;;85.63;81.30;;;;;;;23.31;56.92;100618.22;4981121;28;20043;-72